createdAt,value
2023-05-05T00:00:36.673Z,76.50
2023-05-05T00:02:41.722Z,76.68
2023-05-05T00:04:41.849Z,76.52
2023-05-05T00:06:40.067Z,77.17
2023-05-05T00:08:39.183Z,76.69
2023-05-05T00:10:37.142Z,77.18
2023-05-05T00:12:56.340Z,77.82
2023-05-05T00:14:51.977Z,77.94
2023-05-05T00:16:50.649Z,78.31
2023-05-05T00:18:55.523Z,78.73
2023-05-05T00:21:04.832Z,78.66
2023-05-05T00:23:07.719Z,79.19
2023-05-05T00:25:15.677Z,79.64
2023-05-05T00:27:10.892Z,80.11
2023-05-05T00:29:06.315Z,80.41
2023-05-05T00:31:01.856Z,80.81
2023-05-05T00:33:00.061Z,80.52
2023-05-05T00:34:55.198Z,81.29
2023-05-05T00:36:50.705Z,82.34
2023-05-05T00:38:45.838Z,82.80
2023-05-05T00:40:41.347Z,81.75
2023-05-05T00:42:43.013Z,82.01
2023-05-05T00:44:42.811Z,82.18
2023-05-05T00:46:40.887Z,82.94
2023-05-05T00:48:39.155Z,83.90
2023-05-05T00:50:34.928Z,83.68
2023-05-05T00:52:30.384Z,83.51
2023-05-05T00:54:25.714Z,83.90
2023-05-05T00:56:22.337Z,84.36
2023-05-05T00:58:17.566Z,84.69
2023-05-05T01:00:14.579Z,83.83
2023-05-05T01:02:13.068Z,83.76
2023-05-05T01:04:11.039Z,83.75
2023-05-05T01:06:16.265Z,84.48
2023-05-05T01:08:25.275Z,84.79
2023-05-05T01:10:33.146Z,84.44
2023-05-05T01:12:40.080Z,84.51
2023-05-05T01:14:43.347Z,84.96
2023-05-05T01:16:43.875Z,85.13
2023-05-05T01:18:45.000Z,85.86
2023-05-05T01:20:52.345Z,86.30
2023-05-05T01:22:51.208Z,86.28
2023-05-05T01:24:59.796Z,86.99
2023-05-05T01:27:03.365Z,86.52
2023-05-05T01:29:22.968Z,86.94
2023-05-05T01:31:29.829Z,86.69
2023-05-05T01:33:33.053Z,87.17
2023-05-05T01:35:31.943Z,87.52
2023-05-05T01:37:32.996Z,88.63
2023-05-05T01:39:34.222Z,88.54
2023-05-05T01:41:33.468Z,87.80
2023-05-05T01:43:32.363Z,88.70
2023-05-05T01:45:32.610Z,88.45
2023-05-05T01:47:27.778Z,88.76
2023-05-05T01:49:26.962Z,88.34
2023-05-05T01:51:27.247Z,89.07
2023-05-05T01:53:25.919Z,88.85
2023-05-05T01:55:26.699Z,88.58
2023-05-05T01:57:32.264Z,89.01
2023-05-05T01:59:29.385Z,90.26
2023-05-05T02:01:27.268Z,89.99
2023-05-05T02:03:24.160Z,90.76
2023-05-05T02:05:22.987Z,91.69
2023-05-05T02:07:19.600Z,91.57
2023-05-05T02:09:16.611Z,91.67
2023-05-05T02:11:12.817Z,92.01
2023-05-05T02:13:08.552Z,91.65
2023-05-05T02:15:05.520Z,91.88
2023-05-05T02:17:01.866Z,91.29
2023-05-05T02:18:58.412Z,91.63
2023-05-05T02:20:56.654Z,92.07
2023-05-05T02:22:51.981Z,91.88
2023-05-05T02:24:47.671Z,92.07
2023-05-05T02:26:43.625Z,92.48
2023-05-05T02:28:45.333Z,92.65
2023-05-05T02:30:41.969Z,93.00
2023-05-05T02:32:40.741Z,92.90
2023-05-05T02:34:39.651Z,92.91
2023-05-05T02:36:41.253Z,93.15
2023-05-05T02:38:37.684Z,92.99
2023-05-05T02:40:35.904Z,92.27
2023-05-05T02:42:35.160Z,92.73
2023-05-05T02:44:31.990Z,91.80
2023-05-05T02:46:27.144Z,92.18
2023-05-05T02:48:22.654Z,92.42
2023-05-05T02:50:18.178Z,92.09
2023-05-05T02:52:16.160Z,92.98
2023-05-05T02:54:11.424Z,93.48
2023-05-05T02:56:13.434Z,93.36
2023-05-05T02:58:11.344Z,94.00
2023-05-05T03:00:13.830Z,94.19
2023-05-05T03:02:19.238Z,93.80
2023-05-05T03:04:20.480Z,94.30
2023-05-05T03:06:20.407Z,94.53
2023-05-05T03:08:23.252Z,94.96
2023-05-05T03:10:23.036Z,94.67
2023-05-05T03:12:23.055Z,95.17
2023-05-05T03:14:21.446Z,95.41
2023-05-05T03:16:21.121Z,95.63
2023-05-05T03:18:18.639Z,95.80
2023-05-05T03:20:17.373Z,95.89
2023-05-05T03:22:13.485Z,95.46
2023-05-05T03:24:20.971Z,96.56
2023-05-05T03:26:19.934Z,96.86
2023-05-05T03:28:16.657Z,96.15
2023-05-05T03:30:13.167Z,96.34
2023-05-05T03:32:10.047Z,96.56
2023-05-05T03:34:06.301Z,96.68
2023-05-05T03:36:01.653Z,96.93
2023-05-05T03:37:57.402Z,97.50
2023-05-05T03:39:55.318Z,97.31
2023-05-05T03:41:50.299Z,97.58
2023-05-05T03:43:45.612Z,97.09
2023-05-05T03:45:40.665Z,97.77
2023-05-05T03:47:36.120Z,98.18
2023-05-05T03:49:31.567Z,98.80
2023-05-05T03:51:28.200Z,98.26
2023-05-05T03:53:23.207Z,97.62
2023-05-05T03:55:21.274Z,97.74
2023-05-05T03:57:16.840Z,98.39
2023-05-05T03:59:12.297Z,98.05
2023-05-05T04:01:08.443Z,98.73
2023-05-05T04:03:04.006Z,98.84
2023-05-05T04:04:59.071Z,99.70
2023-05-05T04:06:54.452Z,99.99
2023-05-05T04:08:49.571Z,99.66
2023-05-05T04:10:47.550Z,99.33
2023-05-05T04:12:42.669Z,99.72
2023-05-05T04:14:38.000Z,100.00
2023-05-05T04:16:33.706Z,100.00
2023-05-05T04:18:29.066Z,99.86
2023-05-05T04:20:24.267Z,100.00
2023-05-05T04:22:19.619Z,100.00
2023-05-05T04:24:14.628Z,100.00
2023-05-05T04:26:12.586Z,100.00
2023-05-05T04:28:07.942Z,100.00
2023-05-05T04:30:03.501Z,100.00
2023-05-05T04:31:58.613Z,100.00
2023-05-05T04:33:53.996Z,100.00
2023-05-05T04:35:49.114Z,100.00
2023-05-05T04:37:44.618Z,100.00
2023-05-05T04:39:39.674Z,100.00
2023-05-05T04:41:37.615Z,100.00
2023-05-05T04:43:32.733Z,100.00
2023-05-05T04:45:28.174Z,100.00
2023-05-05T04:47:23.197Z,100.00
2023-05-05T04:49:18.596Z,100.00
2023-05-05T04:51:13.811Z,100.00
2023-05-05T04:53:09.172Z,100.00
2023-05-05T04:55:04.503Z,100.00
2023-05-05T04:57:02.529Z,100.00
2023-05-05T04:58:57.558Z,100.00
2023-05-05T05:00:52.901Z,100.00
2023-05-05T05:02:48.161Z,100.00
2023-05-05T05:04:43.666Z,100.00
2023-05-05T05:06:38.809Z,100.00
2023-05-05T05:08:34.159Z,100.00
2023-05-05T05:10:29.207Z,100.00
2023-05-05T05:12:27.230Z,100.00
2023-05-05T05:14:22.235Z,100.00
2023-05-05T05:16:17.944Z,100.00
2023-05-05T05:18:13.045Z,100.00
2023-05-05T05:20:10.351Z,100.00
2023-05-05T05:22:05.891Z,100.00
2023-05-05T05:24:01.377Z,100.00
2023-05-05T05:25:56.518Z,100.00
2023-05-05T05:28:06.170Z,100.00
2023-05-05T05:30:04.461Z,100.00
2023-05-05T05:32:00.144Z,100.00
2023-05-05T05:33:56.269Z,100.00
2023-05-05T05:35:52.053Z,100.00
2023-05-05T05:37:47.841Z,100.00
2023-05-05T05:39:43.865Z,100.00
2023-05-05T05:41:39.253Z,100.00
2023-05-05T05:43:37.447Z,100.00
2023-05-05T05:45:32.872Z,100.00
2023-05-05T05:47:28.683Z,100.00
2023-05-05T05:49:24.025Z,100.00
2023-05-05T05:51:19.695Z,100.00
2023-05-05T05:53:15.000Z,100.00
2023-05-05T05:55:12.115Z,100.00
2023-05-05T05:57:09.179Z,100.00
2023-05-05T05:59:08.264Z,100.00
2023-05-05T06:01:05.075Z,100.00
2023-05-05T06:03:00.699Z,100.00
2023-05-05T06:04:56.112Z,100.00
2023-05-05T06:06:51.758Z,100.00
2023-05-05T06:08:47.001Z,100.00
2023-05-05T06:10:42.706Z,100.00
2023-05-05T06:12:37.731Z,99.87
2023-05-05T06:14:35.718Z,98.90
2023-05-05T06:16:30.919Z,99.05
2023-05-05T06:18:26.493Z,98.65
2023-05-05T06:20:21.555Z,98.07
2023-05-05T06:22:16.928Z,100.00
2023-05-05T06:24:12.129Z,98.33
2023-05-05T06:26:07.516Z,97.84
2023-05-05T06:28:02.704Z,97.61
2023-05-05T06:30:00.843Z,96.97
2023-05-05T06:31:55.918Z,96.58
2023-05-05T06:33:51.278Z,95.69
2023-05-05T06:35:47.286Z,94.37
2023-05-05T06:37:42.686Z,93.89
2023-05-05T06:39:37.662Z,93.38
2023-05-05T06:41:32.983Z,93.01
2023-05-05T06:43:28.659Z,92.76
2023-05-05T06:45:27.026Z,92.73
2023-05-05T06:47:22.243Z,93.33
2023-05-05T06:49:17.583Z,94.31
2023-05-05T06:51:12.858Z,92.48
2023-05-05T06:53:08.398Z,89.97
2023-05-05T06:55:04.027Z,89.06
2023-05-05T06:56:59.803Z,87.19
2023-05-05T06:58:54.926Z,87.01
2023-05-05T07:00:54.213Z,86.96
2023-05-05T07:02:49.976Z,87.90
2023-05-05T07:04:46.960Z,88.79
2023-05-05T07:06:41.974Z,87.49
2023-05-05T07:08:37.404Z,86.30
2023-05-05T07:10:32.496Z,83.80
2023-05-05T07:12:27.816Z,83.81
2023-05-05T07:14:24.395Z,84.25
2023-05-05T07:16:22.584Z,82.80
2023-05-05T07:18:18.499Z,84.48
2023-05-05T07:20:14.513Z,85.29
2023-05-05T07:22:09.545Z,84.86
2023-05-05T07:24:05.615Z,85.25
2023-05-05T07:26:01.000Z,84.73
2023-05-05T07:27:56.528Z,82.56
2023-05-05T07:29:51.884Z,81.13
2023-05-05T07:31:49.845Z,80.66
2023-05-05T07:33:44.880Z,80.28
2023-05-05T07:35:40.249Z,82.05
2023-05-05T07:37:35.504Z,82.78
2023-05-05T07:39:30.966Z,83.35
2023-05-05T07:41:27.075Z,84.40
2023-05-05T07:43:22.516Z,86.54
2023-05-05T07:45:17.538Z,86.56
2023-05-05T07:47:15.514Z,84.92
2023-05-05T07:49:10.528Z,81.79
2023-05-05T07:51:06.023Z,78.39
2023-05-05T07:53:10.768Z,78.81
2023-05-05T07:55:10.354Z,79.34
2023-05-05T07:57:05.508Z,76.85
2023-05-05T07:59:01.130Z,77.68
2023-05-05T08:00:56.550Z,79.37
2023-05-05T08:02:55.080Z,82.16
2023-05-05T08:04:50.473Z,80.18
2023-05-05T08:06:46.473Z,80.72
2023-05-05T08:08:41.874Z,78.46
2023-05-05T08:10:37.334Z,78.77
2023-05-05T08:12:32.412Z,77.78
2023-05-05T08:14:27.813Z,76.83
2023-05-05T08:16:22.924Z,78.28
2023-05-05T08:18:20.913Z,83.34
2023-05-05T08:20:16.382Z,76.82
2023-05-05T08:22:11.673Z,77.37
2023-05-05T08:24:07.054Z,79.23
2023-05-05T08:26:02.427Z,74.76
2023-05-05T08:27:57.630Z,73.00
2023-05-05T08:29:52.983Z,73.19
2023-05-05T08:31:48.048Z,73.46
2023-05-05T08:33:46.037Z,73.94
2023-05-05T08:35:41.143Z,72.79
2023-05-05T08:37:36.532Z,71.17
2023-05-05T08:39:31.562Z,69.83
2023-05-05T08:41:27.386Z,71.56
2023-05-05T08:43:24.060Z,72.44
2023-05-05T08:45:19.478Z,67.40
2023-05-05T08:47:17.880Z,69.51
2023-05-05T08:49:18.105Z,68.92
2023-05-05T08:51:19.610Z,67.70
2023-05-05T08:53:19.882Z,67.21
2023-05-05T08:55:26.711Z,66.59
2023-05-05T08:57:28.330Z,65.88
2023-05-05T08:59:28.500Z,61.25
2023-05-05T09:01:24.878Z,61.88
2023-05-05T09:03:20.969Z,62.85
2023-05-05T09:05:18.916Z,61.99
2023-05-05T09:07:14.696Z,60.51
2023-05-05T09:09:09.710Z,61.41
2023-05-05T09:11:05.683Z,61.95
2023-05-05T09:13:01.124Z,60.77
2023-05-05T09:14:59.084Z,59.03
2023-05-05T09:16:54.526Z,59.45
2023-05-05T09:18:49.974Z,58.71
2023-05-05T09:20:47.690Z,57.40
2023-05-05T09:22:44.131Z,57.28
2023-05-05T09:24:39.236Z,56.45
2023-05-05T09:26:36.268Z,56.67
2023-05-05T09:28:31.388Z,55.42
2023-05-05T09:30:28.135Z,55.95
2023-05-05T09:32:23.222Z,56.42
2023-05-05T09:34:19.681Z,54.25
2023-05-05T09:36:17.312Z,53.97
2023-05-05T09:38:15.860Z,53.34
2023-05-05T09:40:12.206Z,52.85
2023-05-05T09:42:08.636Z,51.86
2023-05-05T09:44:03.739Z,52.46
2023-05-05T09:46:09.248Z,51.80
2023-05-05T09:48:04.491Z,51.57
2023-05-05T09:50:01.359Z,51.53
2023-05-05T09:52:00.555Z,52.73
2023-05-05T09:53:56.151Z,52.67
2023-05-05T09:55:58.392Z,52.29
2023-05-05T09:57:54.195Z,51.40
2023-05-05T09:59:59.211Z,48.07
2023-05-05T10:01:55.077Z,48.39
2023-05-05T10:03:54.273Z,47.93
2023-05-05T10:05:52.051Z,47.58
2023-05-05T10:07:50.700Z,46.57
2023-05-05T10:09:58.658Z,46.68
2023-05-05T10:11:54.349Z,47.12
2023-05-05T10:13:50.485Z,45.44
2023-05-05T10:15:48.620Z,46.20
2023-05-05T10:19:48.660Z,46.12
2023-05-05T10:21:49.080Z,43.71
2023-05-05T10:23:52.563Z,44.25
2023-05-05T10:25:55.511Z,44.46
2023-05-05T10:27:55.927Z,44.84
2023-05-05T10:29:57.894Z,43.04
2023-05-05T10:31:56.875Z,43.03
2023-05-05T10:39:53.254Z,43.70
2023-05-05T10:41:49.876Z,42.12
2023-05-05T10:43:46.061Z,42.97
2023-05-05T10:45:43.324Z,42.15
2023-05-05T10:47:40.462Z,41.18
2023-05-05T10:49:45.786Z,41.39
2023-05-05T10:52:12.502Z,40.20
2023-05-05T10:54:16.415Z,40.87
2023-05-05T10:56:25.409Z,42.04
2023-05-05T10:58:46.862Z,41.43
2023-05-05T11:00:53.266Z,41.20
2023-05-05T11:02:48.678Z,39.11
2023-05-05T11:04:43.853Z,38.96
2023-05-05T11:06:39.171Z,38.50
2023-05-05T11:08:35.665Z,38.79
2023-05-05T11:10:47.072Z,39.70
2023-05-05T11:13:14.824Z,40.48
2023-05-05T11:15:40.346Z,39.92
2023-05-05T11:17:48.702Z,40.08
2023-05-05T11:19:52.333Z,40.22
2023-05-05T11:22:03.360Z,39.66
2023-05-05T11:24:29.656Z,39.51
2023-05-05T11:26:53.064Z,39.25
2023-05-05T11:29:02.479Z,38.25
2023-05-05T11:31:22.220Z,38.55
2023-05-05T11:33:28.543Z,38.98
2023-05-05T11:35:23.636Z,36.97
2023-05-05T11:37:19.375Z,36.61
2023-05-05T11:39:25.819Z,37.26
2023-05-05T11:41:33.577Z,38.17
2023-05-05T11:43:28.734Z,38.03
2023-05-05T11:45:26.589Z,38.00
2023-05-05T11:47:32.778Z,38.13
2023-05-05T11:49:36.276Z,36.34
2023-05-05T11:51:31.690Z,36.60
2023-05-05T11:53:27.130Z,37.03
2023-05-05T11:55:24.026Z,37.76
2023-05-05T11:57:21.698Z,37.56
2023-05-05T11:59:16.770Z,37.28
2023-05-05T12:01:13.267Z,37.14
2023-05-05T12:03:11.134Z,36.49
2023-05-05T12:05:07.554Z,36.76
2023-05-05T12:07:03.082Z,37.68
2023-05-05T12:08:58.683Z,37.38
2023-05-05T12:10:53.769Z,37.23
2023-05-05T12:12:49.586Z,36.83
2023-05-05T12:14:51.779Z,37.42
2023-05-05T12:16:57.291Z,36.80
2023-05-05T12:19:06.710Z,36.88
2023-05-05T12:21:02.056Z,37.02
2023-05-05T12:23:03.340Z,36.45
2023-05-05T12:24:59.454Z,35.76
2023-05-05T12:26:54.544Z,35.87
2023-05-05T12:28:50.918Z,35.57
2023-05-05T12:30:46.503Z,35.36
2023-05-05T12:32:42.453Z,35.32
2023-05-05T12:34:40.164Z,34.94
2023-05-05T12:36:36.372Z,34.85
2023-05-05T12:38:31.408Z,34.66
2023-05-05T12:40:53.880Z,34.58
2023-05-05T12:42:49.371Z,34.29
2023-05-05T12:44:46.786Z,34.37
2023-05-05T12:46:47.572Z,33.46
2023-05-05T12:48:47.237Z,34.18
2023-05-05T12:50:46.038Z,34.07
2023-05-05T12:52:46.242Z,33.66
2023-05-05T12:54:55.038Z,33.57
2023-05-05T12:56:51.364Z,33.64
2023-05-05T12:58:50.223Z,33.17
2023-05-05T13:00:46.051Z,33.44
2023-05-05T13:02:41.957Z,33.70
2023-05-05T13:04:50.906Z,33.96
2023-05-05T13:06:49.826Z,33.73
2023-05-05T13:08:46.140Z,33.71
2023-05-05T13:10:43.311Z,33.68
2023-05-05T13:12:39.038Z,33.17
2023-05-05T13:14:34.996Z,32.14
2023-05-05T13:16:30.787Z,32.56
2023-05-05T13:18:26.391Z,32.61
2023-05-05T13:20:22.258Z,32.60
2023-05-05T13:22:20.310Z,32.64
2023-05-05T13:26:15.738Z,32.75
2023-05-05T13:28:11.486Z,32.90
2023-05-05T13:30:07.562Z,32.29
2023-05-05T13:32:03.743Z,32.38
2023-05-05T13:33:59.129Z,32.56
2023-05-05T13:35:54.585Z,32.51
2023-05-05T13:37:52.218Z,31.36
2023-05-05T13:39:47.628Z,31.92
2023-05-05T13:41:44.833Z,32.10
2023-05-05T13:43:40.221Z,32.27
2023-05-05T13:45:35.329Z,31.81
2023-05-05T13:47:30.716Z,31.56
2023-05-05T13:49:25.828Z,31.79
2023-05-05T13:51:21.166Z,31.72
2023-05-05T13:53:19.122Z,32.09
2023-05-05T13:55:14.525Z,31.71
2023-05-05T13:57:11.220Z,31.53
2023-05-05T13:59:06.551Z,31.94
2023-05-05T14:01:01.566Z,31.00
2023-05-05T14:02:57.134Z,31.27
2023-05-05T14:04:52.193Z,31.61
2023-05-05T14:06:47.576Z,31.58
2023-05-05T14:08:46.214Z,30.92
2023-05-05T14:10:43.376Z,31.17
2023-05-05T14:12:39.477Z,31.97
2023-05-05T14:14:35.469Z,32.29
2023-05-05T14:16:30.540Z,31.78
2023-05-05T14:18:25.947Z,31.55
2023-05-05T14:20:20.951Z,31.20
2023-05-05T14:22:16.568Z,31.17
2023-05-05T14:24:14.167Z,31.19
2023-05-05T14:26:09.716Z,31.35
2023-05-05T14:28:04.896Z,31.82
2023-05-05T14:30:00.329Z,31.55
2023-05-05T14:31:55.615Z,32.22
2023-05-05T14:33:51.114Z,31.91
2023-05-05T14:35:46.230Z,31.80
2023-05-05T14:37:41.657Z,31.28
2023-05-05T14:39:39.285Z,30.89
2023-05-05T14:41:34.752Z,31.70
2023-05-05T14:43:29.789Z,31.87
2023-05-05T14:45:25.155Z,31.84
2023-05-05T14:47:20.126Z,32.22
2023-05-05T14:49:15.513Z,32.23
2023-05-05T14:51:10.559Z,32.33
2023-05-05T14:53:05.955Z,32.45
2023-05-05T14:55:03.562Z,32.56
2023-05-05T14:56:59.504Z,32.16
2023-05-05T14:58:54.759Z,32.38
2023-05-05T15:00:50.230Z,32.77
2023-05-05T15:04:40.854Z,31.85
2023-05-05T15:06:36.550Z,32.02
2023-05-05T15:08:31.981Z,31.99
2023-05-05T15:10:29.680Z,31.82
2023-05-05T15:12:26.141Z,31.60
2023-05-05T15:14:21.325Z,31.58
2023-05-05T15:16:16.834Z,31.74
2023-05-05T15:18:11.990Z,31.99
2023-05-05T15:20:09.146Z,31.58
2023-05-05T15:22:04.618Z,31.65
2023-05-05T15:24:00.117Z,31.97
2023-05-05T15:25:58.036Z,32.02
2023-05-05T15:27:53.470Z,31.98
2023-05-05T15:29:48.716Z,32.02
2023-05-05T15:31:44.472Z,32.03
2023-05-05T15:33:40.755Z,31.94
2023-05-05T15:35:36.394Z,32.21
2023-05-05T15:37:31.803Z,32.72
2023-05-05T15:39:27.146Z,32.65
2023-05-05T15:41:27.187Z,33.00
2023-05-05T15:43:22.956Z,32.92
2023-05-05T15:45:18.768Z,32.77
2023-05-05T15:47:17.230Z,32.48
2023-05-05T15:49:12.521Z,33.07
2023-05-05T15:51:07.911Z,32.33
2023-05-05T15:53:02.972Z,33.01
2023-05-05T15:54:58.458Z,32.58
2023-05-05T15:56:56.200Z,32.51
2023-05-05T15:58:51.725Z,32.70
2023-05-05T16:00:46.736Z,33.00
2023-05-05T16:02:42.234Z,33.48
2023-05-05T16:04:37.332Z,33.09
2023-05-05T16:06:32.718Z,33.31
2023-05-05T16:08:27.960Z,33.75
2023-05-05T16:10:23.653Z,34.11
2023-05-05T16:12:22.282Z,34.27
2023-05-05T16:14:17.624Z,34.27
2023-05-05T16:16:12.622Z,34.13
2023-05-05T16:18:08.329Z,34.22
2023-05-05T16:20:03.884Z,34.46
2023-05-05T16:21:59.686Z,34.87
2023-05-05T16:23:54.793Z,35.09
2023-05-05T16:25:50.137Z,34.68
2023-05-05T16:27:47.807Z,34.64
2023-05-05T16:29:43.197Z,34.74
2023-05-05T16:31:38.531Z,34.84
2023-05-05T16:33:36.159Z,34.65
2023-05-05T16:35:31.170Z,35.12
2023-05-05T16:37:26.544Z,35.27
2023-05-05T16:39:21.848Z,35.46
2023-05-05T16:41:17.314Z,36.04
2023-05-05T16:43:14.978Z,35.86
2023-05-05T16:45:11.815Z,36.94
2023-05-05T16:47:07.041Z,36.95
2023-05-05T16:49:02.654Z,36.75
2023-05-05T16:51:01.534Z,36.53
2023-05-05T16:52:57.091Z,36.32
2023-05-05T16:54:55.689Z,36.27
2023-05-05T16:56:52.377Z,36.68
2023-05-05T16:58:50.108Z,37.31
2023-05-05T17:00:46.933Z,37.04
2023-05-05T17:02:41.995Z,37.55
2023-05-05T17:04:37.368Z,37.80
2023-05-05T17:06:34.750Z,37.95
2023-05-05T17:08:30.096Z,37.85
2023-05-05T17:10:25.380Z,38.29
2023-05-05T17:12:20.690Z,38.44
2023-05-05T17:14:18.614Z,38.92
2023-05-05T17:16:13.943Z,38.68
2023-05-05T17:18:10.525Z,38.86
2023-05-05T17:20:05.935Z,38.75
2023-05-05T17:22:00.959Z,38.67
2023-05-05T17:23:56.274Z,39.25
2023-05-05T17:25:51.635Z,39.10
2023-05-05T17:27:47.049Z,38.90
2023-05-05T17:29:44.638Z,39.66
2023-05-05T17:31:40.080Z,40.04
2023-05-05T17:33:35.136Z,40.91
2023-05-05T17:35:30.479Z,40.56
2023-05-05T17:37:25.474Z,41.15
2023-05-05T17:39:21.127Z,40.52
2023-05-05T17:41:16.713Z,40.02
2023-05-05T17:43:12.425Z,40.32
2023-05-05T17:45:12.176Z,40.84
2023-05-05T17:47:08.610Z,41.43
2023-05-05T17:49:04.004Z,41.35
2023-05-05T17:50:59.689Z,41.73
2023-05-05T17:52:55.332Z,42.05
2023-05-05T17:54:51.462Z,41.80
2023-05-05T17:56:47.024Z,42.67
2023-05-05T17:58:47.722Z,43.15
2023-05-05T18:00:49.549Z,43.55
2023-05-05T18:02:51.812Z,43.89
2023-05-05T18:04:51.055Z,43.98
2023-05-05T18:06:47.782Z,44.33
2023-05-05T18:08:43.080Z,44.81
2023-05-05T18:10:38.464Z,45.20
2023-05-05T18:12:33.934Z,45.98
2023-05-05T18:14:30.522Z,46.41
2023-05-05T18:16:28.738Z,46.69
2023-05-05T18:18:25.118Z,47.23
2023-05-05T18:20:20.306Z,47.70
2023-05-05T18:22:17.153Z,48.25
2023-05-05T18:26:13.832Z,49.34
2023-05-05T18:28:09.881Z,49.60
2023-05-05T18:30:05.871Z,49.70
2023-05-05T18:32:03.641Z,50.07
2023-05-05T18:33:59.009Z,49.84
2023-05-05T18:35:54.015Z,50.29
2023-05-05T18:37:49.915Z,50.36
2023-05-05T18:39:46.056Z,50.33
2023-05-05T18:41:41.788Z,51.25
2023-05-05T18:43:39.227Z,51.26
2023-05-05T18:45:34.850Z,51.07
2023-05-05T18:47:33.867Z,51.61
2023-05-05T18:49:31.332Z,51.75
2023-05-05T18:51:27.992Z,51.74
2023-05-05T18:53:23.476Z,51.58
2023-05-05T18:55:18.949Z,51.43
2023-05-05T18:57:14.333Z,51.82
2023-05-05T18:59:11.186Z,51.99
2023-05-05T19:01:06.580Z,52.70
2023-05-05T19:03:04.550Z,51.99
2023-05-05T19:05:01.621Z,51.76
2023-05-05T19:06:57.231Z,51.63
2023-05-05T19:08:52.662Z,51.66
2023-05-05T19:10:55.416Z,51.81
2023-05-05T19:13:05.824Z,51.67
2023-05-05T19:15:01.719Z,51.95
2023-05-05T19:16:59.360Z,51.67
2023-05-05T19:19:00.211Z,51.58
2023-05-05T19:20:55.415Z,51.66
2023-05-05T19:22:51.099Z,52.27
2023-05-05T19:24:46.059Z,52.71
2023-05-05T19:26:41.568Z,53.28
2023-05-05T19:28:36.645Z,53.04
2023-05-05T19:30:32.622Z,53.15
2023-05-05T19:32:27.748Z,53.16
2023-05-05T19:34:26.167Z,53.27
2023-05-05T19:36:21.531Z,52.97
2023-05-05T19:38:17.242Z,53.12
2023-05-05T19:40:13.664Z,53.86
2023-05-05T19:42:10.114Z,54.01
2023-05-05T19:44:05.299Z,53.90
2023-05-05T19:46:01.899Z,54.24
2023-05-05T19:47:58.586Z,55.32
2023-05-05T19:50:00.775Z,54.54
2023-05-05T19:52:06.401Z,54.95
2023-05-05T19:54:02.276Z,54.96
2023-05-05T19:55:58.003Z,54.79
2023-05-05T19:57:54.758Z,55.34
2023-05-05T19:59:51.979Z,55.29
2023-05-05T20:01:52.473Z,54.88
2023-05-05T20:03:54.018Z,55.04
2023-05-05T20:05:55.473Z,55.55
2023-05-05T20:07:55.206Z,56.00
2023-05-05T20:09:58.564Z,56.29
2023-05-05T20:12:03.960Z,56.21
2023-05-05T20:14:24.647Z,56.74
2023-05-05T20:19:28.556Z,56.91
2023-05-05T20:21:38.262Z,56.75
2023-05-05T20:23:48.265Z,57.05
2023-05-05T20:25:53.946Z,57.10
2023-05-05T20:28:00.764Z,56.71
2023-05-05T20:30:05.161Z,56.59
2023-05-05T20:32:03.713Z,56.65
2023-05-05T20:33:58.951Z,57.71
2023-05-05T20:35:54.336Z,57.90
2023-05-05T20:37:52.027Z,58.46
2023-05-05T20:39:47.477Z,58.35
2023-05-05T20:41:42.499Z,58.40
2023-05-05T20:43:38.785Z,58.72
2023-05-05T20:45:37.256Z,59.02
2023-05-05T20:47:32.829Z,58.58
2023-05-05T20:49:27.850Z,60.75
2023-05-05T20:51:23.193Z,62.12
2023-05-05T20:53:23.300Z,60.74
2023-05-05T20:55:18.758Z,60.04
2023-05-05T20:57:13.795Z,62.13
2023-05-05T20:59:09.146Z,60.97
2023-05-05T21:01:04.183Z,61.26
2023-05-05T21:02:59.663Z,62.13
2023-05-05T21:04:54.653Z,60.65
2023-05-05T21:06:50.021Z,63.06
2023-05-05T21:08:47.878Z,61.43
2023-05-05T21:10:43.324Z,60.58
2023-05-05T21:12:38.393Z,62.00
2023-05-05T21:14:33.954Z,60.41
2023-05-05T21:16:28.952Z,61.53
2023-05-05T21:18:25.856Z,60.46
2023-05-05T21:20:21.620Z,61.34
2023-05-05T21:22:17.029Z,60.33
2023-05-05T21:24:15.667Z,61.49
2023-05-05T21:26:11.087Z,61.15
2023-05-05T21:28:06.287Z,61.85
2023-05-05T21:30:01.650Z,59.96
2023-05-05T21:31:56.736Z,62.86
2023-05-05T21:33:52.239Z,62.94
2023-05-05T21:35:47.230Z,61.24
2023-05-05T21:37:42.899Z,60.39
2023-05-05T21:39:40.758Z,60.78
2023-05-05T21:41:36.218Z,62.01
2023-05-05T21:43:31.392Z,62.75
2023-05-05T21:45:27.034Z,62.83
2023-05-05T21:47:22.063Z,63.81
2023-05-05T21:49:18.559Z,64.20
2023-05-05T21:51:13.553Z,65.03
2023-05-05T21:53:08.869Z,66.99
2023-05-05T21:55:07.096Z,67.74
2023-05-05T21:57:02.955Z,68.22
2023-05-05T21:58:58.010Z,70.19
2023-05-05T22:00:53.687Z,70.35
2023-05-05T22:02:48.848Z,71.96
2023-05-05T22:04:46.160Z,72.99
2023-05-05T22:06:43.446Z,73.35
2023-05-05T22:08:38.785Z,72.37
2023-05-05T22:10:36.301Z,72.86
2023-05-05T22:12:31.981Z,74.24
2023-05-05T22:14:27.451Z,74.27
2023-05-05T22:16:23.126Z,74.23
2023-05-05T22:18:18.759Z,75.31
2023-05-05T22:20:15.083Z,77.63
2023-05-05T22:22:10.553Z,77.34
2023-05-05T22:24:07.292Z,78.88
2023-05-05T22:26:05.513Z,82.92
2023-05-05T22:28:01.843Z,84.48
2023-05-05T22:30:07.753Z,84.89
2023-05-05T22:32:14.388Z,86.50
2023-05-05T22:34:09.491Z,85.96
2023-05-05T22:36:04.857Z,85.54
2023-05-05T22:37:59.986Z,85.29
2023-05-05T22:39:55.661Z,85.19
2023-05-05T22:41:53.774Z,86.11
2023-05-05T22:43:53.568Z,88.13
2023-05-05T22:45:48.713Z,91.95
2023-05-05T22:47:45.449Z,93.88
2023-05-05T22:49:42.284Z,94.94
2023-05-05T22:51:40.348Z,94.02
2023-05-05T22:53:37.122Z,95.04
2023-05-05T22:55:34.761Z,94.94
2023-05-05T22:57:33.135Z,96.17
2023-05-05T22:59:28.707Z,96.99
2023-05-05T23:01:24.268Z,97.27
2023-05-05T23:03:20.675Z,98.54
2023-05-05T23:05:16.246Z,99.13
2023-05-05T23:07:11.644Z,99.26
2023-05-05T23:09:07.725Z,97.81
2023-05-05T23:11:03.249Z,99.07
2023-05-05T23:13:01.870Z,99.44
2023-05-05T23:14:58.283Z,100.00
2023-05-05T23:16:53.407Z,100.00
2023-05-05T23:18:48.905Z,100.00
2023-05-05T23:20:45.455Z,100.00
2023-05-05T23:22:41.345Z,100.00
2023-05-05T23:24:37.217Z,100.00
2023-05-05T23:26:33.028Z,100.00
2023-05-05T23:28:31.427Z,100.00
2023-05-05T23:30:27.152Z,100.00
2023-05-05T23:32:23.530Z,100.00
2023-05-05T23:34:18.859Z,100.00
2023-05-05T23:36:14.516Z,100.00
2023-05-05T23:38:10.150Z,100.00
2023-05-05T23:40:05.551Z,100.00
2023-05-05T23:42:01.702Z,100.00
2023-05-05T23:43:59.497Z,100.00
2023-05-05T23:45:55.203Z,100.00
2023-05-05T23:47:50.621Z,100.00
2023-05-05T23:49:46.034Z,100.00
2023-05-05T23:51:41.094Z,100.00
2023-05-05T23:53:41.225Z,100.00
2023-05-05T23:55:36.408Z,100.00
2023-05-05T23:57:32.228Z,100.00
2023-05-05T23:59:30.182Z,100.00
